sensor_id;sensor_type;location;lat;lon;timestamp;pressure;altitude;pressure_sealevel;temperature;humidity
64544;BME280;50936;51.660;5.616;2024-02-15T00:02:36;101330.06;;;15.64;100.00
64544;BME280;50936;51.660;5.616;2024-02-15T00:05:23;101330.44;;;15.71;100.00
64544;BME280;50936;51.660;5.616;2024-02-15T00:08:11;101321.41;;;15.70;100.00
64544;BME280;50936;51.660;5.616;2024-02-15T00:10:58;101318.13;;;15.55;100.00
64544;BME280;50936;51.660;5.616;2024-02-15T00:13:46;101325.63;;;15.63;100.00
64544;BME280;50936;51.660;5.616;2024-02-15T00:16:34;101314.00;;;15.61;100.00
64544;BME280;50936;51.660;5.616;2024-02-15T00:19:24;101323.69;;;15.54;100.00
64544;BME280;50936;51.660;5.616;2024-02-15T00:22:12;101318.72;;;15.59;100.00
64544;BME280;50936;51.660;5.616;2024-02-15T00:24:59;101315.47;;;15.65;100.00
64544;BME280;50936;51.660;5.616;2024-02-15T00:27:47;101308.28;;;15.64;100.00
64544;BME280;50936;51.660;5.616;2024-02-15T00:30:34;101311.50;;;15.69;100.00
64544;BME280;50936;51.660;5.616;2024-02-15T00:33:21;101307.84;;;15.59;100.00
64544;BME280;50936;51.660;5.616;2024-02-15T00:36:10;101315.47;;;15.65;100.00
64544;BME280;50936;51.660;5.616;2024-02-15T00:38:58;101314.03;;;15.50;100.00
64544;BME280;50936;51.660;5.616;2024-02-15T00:41:45;101310.03;;;15.65;100.00
64544;BME280;50936;51.660;5.616;2024-02-15T00:44:33;101326.91;;;15.59;100.00
64544;BME280;50936;51.660;5.616;2024-02-15T00:47:20;101311.50;;;15.69;100.00
64544;BME280;50936;51.660;5.616;2024-02-15T00:50:08;101324.66;;;15.75;100.00
64544;BME280;50936;51.660;5.616;2024-02-15T00:52:56;101321.66;;;15.78;100.00
64544;BME280;50936;51.660;5.616;2024-02-15T00:55:44;101324.38;;;15.67;100.00
64544;BME280;50936;51.660;5.616;2024-02-15T00:58:31;101322.53;;;15.56;100.00
64544;BME280;50936;51.660;5.616;2024-02-15T01:01:18;101325.88;;;15.60;100.00
64544;BME280;50936;51.660;5.616;2024-02-15T01:04:05;101320.19;;;15.74;100.00
64544;BME280;50936;51.660;5.616;2024-02-15T01:06:53;101318.19;;;15.76;100.00
64544;BME280;50936;51.660;5.616;2024-02-15T01:09:40;101314.50;;;15.77;100.00
64544;BME280;50936;51.660;5.616;2024-02-15T01:12:27;101321.16;;;15.85;100.00
64544;BME280;50936;51.660;5.616;2024-02-15T01:15:14;101322.00;;;15.85;100.00
64544;BME280;50936;51.660;5.616;2024-02-15T01:18:05;101308.19;;;15.77;100.00
64544;BME280;50936;51.660;5.616;2024-02-15T01:20:52;101306.81;;;15.83;100.00
64544;BME280;50936;51.660;5.616;2024-02-15T01:23:39;101308.19;;;15.77;100.00
64544;BME280;50936;51.660;5.616;2024-02-15T01:26:27;101309.91;;;15.78;100.00
64544;BME280;50936;51.660;5.616;2024-02-15T01:29:14;101307.56;;;15.73;100.00
64544;BME280;50936;51.660;5.616;2024-02-15T01:32:01;101292.44;;;15.69;100.00
64544;BME280;50936;51.660;5.616;2024-02-15T01:34:49;101291.56;;;15.80;100.00
64544;BME280;50936;51.660;5.616;2024-02-15T01:37:38;101298.16;;;15.77;100.00
64544;BME280;50936;51.660;5.616;2024-02-15T01:40:25;101296.66;;;15.73;100.00
64544;BME280;50936;51.660;5.616;2024-02-15T01:43:12;101301.59;;;15.80;100.00
64544;BME280;50936;51.660;5.616;2024-02-15T01:45:59;101296.41;;;15.76;100.00
64544;BME280;50936;51.660;5.616;2024-02-15T01:48:51;101300.34;;;15.72;100.00
64544;BME280;50936;51.660;5.616;2024-02-15T01:51:39;101295.78;;;15.73;100.00
64544;BME280;50936;51.660;5.616;2024-02-15T01:54:30;101291.22;;;15.73;100.00
64544;BME280;50936;51.660;5.616;2024-02-15T01:57:19;101275.78;;;15.63;100.00
64544;BME280;50936;51.660;5.616;2024-02-15T02:00:08;101282.56;;;15.68;100.00
64544;BME280;50936;51.660;5.616;2024-02-15T02:02:57;101278.81;;;15.81;100.00
64544;BME280;50936;51.660;5.616;2024-02-15T02:05:49;101265.19;;;15.81;100.00
64544;BME280;50936;51.660;5.616;2024-02-15T02:08:37;101268.69;;;15.83;100.00
64544;BME280;50936;51.660;5.616;2024-02-15T02:11:24;101275.97;;;15.82;100.00
64544;BME280;50936;51.660;5.616;2024-02-15T02:14:13;101272.41;;;15.70;100.00
64544;BME280;50936;51.660;5.616;2024-02-15T02:17:16;101271.91;;;15.65;100.00
64544;BME280;50936;51.660;5.616;2024-02-15T02:20:03;101263.97;;;15.73;100.00
64544;BME280;50936;51.660;5.616;2024-02-15T02:23:03;101260.78;;;15.68;100.00
64544;BME280;50936;51.660;5.616;2024-02-15T02:26:05;101248.06;;;15.57;100.00
64544;BME280;50936;51.660;5.616;2024-02-15T02:28:52;101259.75;;;15.69;100.00
64544;BME280;50936;51.660;5.616;2024-02-15T02:31:42;101262.47;;;15.69;100.00
64544;BME280;50936;51.660;5.616;2024-02-15T02:34:30;101248.66;;;15.61;100.00
64544;BME280;50936;51.660;5.616;2024-02-15T02:37:17;101237.91;;;15.59;100.00
64544;BME280;50936;51.660;5.616;2024-02-15T02:40:05;101247.69;;;15.51;100.00
64544;BME280;50936;51.660;5.616;2024-02-15T02:42:57;101252.13;;;15.63;100.00
64544;BME280;50936;51.660;5.616;2024-02-15T02:45:46;101257.31;;;15.66;100.00
64544;BME280;50936;51.660;5.616;2024-02-15T02:48:33;101257.81;;;15.60;100.00
64544;BME280;50936;51.660;5.616;2024-02-15T02:51:20;101252.13;;;15.63;100.00
64544;BME280;50936;51.660;5.616;2024-02-15T02:54:08;101247.94;;;15.59;100.00
64544;BME280;50936;51.660;5.616;2024-02-15T02:56:55;101248.56;;;15.51;100.00
64544;BME280;50936;51.660;5.616;2024-02-15T02:59:43;101253.25;;;15.61;100.00
64544;BME280;50936;51.660;5.616;2024-02-15T03:08:12;101246.25;;;15.47;100.00
64544;BME280;50936;51.660;5.616;2024-02-15T03:11:02;101233.13;;;15.52;100.00
64544;BME280;50936;51.660;5.616;2024-02-15T03:13:49;101238.81;;;15.49;100.00
64544;BME280;50936;51.660;5.616;2024-02-15T03:16:37;101229.13;;;15.56;100.00
64544;BME280;50936;51.660;5.616;2024-02-15T03:19:25;101229.88;;;15.58;100.00
64544;BME280;50936;51.660;5.616;2024-02-15T03:22:13;101239.72;;;15.70;100.00
64544;BME280;50936;51.660;5.616;2024-02-15T03:25:00;101235.88;;;15.73;100.00
64544;BME280;50936;51.660;5.616;2024-02-15T03:27:48;101225.44;;;15.57;100.00
64544;BME280;50936;51.660;5.616;2024-02-15T03:30:35;101236.66;;;15.64;100.00
64544;BME280;50936;51.660;5.616;2024-02-15T03:33:22;101232.53;;;15.69;100.00
64544;BME280;50936;51.660;5.616;2024-02-15T03:36:13;101233.03;;;15.74;100.00
64544;BME280;50936;51.660;5.616;2024-02-15T03:39:03;101218.91;;;15.69;100.00
64544;BME280;50936;51.660;5.616;2024-02-15T03:41:53;101217.03;;;15.49;100.00
64544;BME280;50936;51.660;5.616;2024-02-15T03:44:42;101234.03;;;15.62;100.00
64544;BME280;50936;51.660;5.616;2024-02-15T03:47:29;101224.81;;;15.53;100.00
64544;BME280;50936;51.660;5.616;2024-02-15T03:50:16;101231.47;;;15.61;100.00
64544;BME280;50936;51.660;5.616;2024-02-15T03:53:05;101230.69;;;15.37;100.00
64544;BME280;50936;51.660;5.616;2024-02-15T03:55:55;101231.38;;;15.51;100.00
64544;BME280;50936;51.660;5.616;2024-02-15T03:58:43;101231.28;;;15.41;100.00
64544;BME280;50936;51.660;5.616;2024-02-15T04:01:30;101226.53;;;15.54;100.00
64544;BME280;50936;51.660;5.616;2024-02-15T04:04:21;101216.81;;;15.40;100.00
64544;BME280;50936;51.660;5.616;2024-02-15T04:07:09;101222.84;;;15.55;100.00
64544;BME280;50936;51.660;5.616;2024-02-15T04:09:58;101224.81;;;15.53;100.00
64544;BME280;50936;51.660;5.616;2024-02-15T04:12:48;101226.66;;;15.53;100.00
64544;BME280;50936;51.660;5.616;2024-02-15T04:15:35;101231.84;;;15.56;100.00
64544;BME280;50936;51.660;5.616;2024-02-15T04:18:22;101229.00;;;15.57;100.00
64544;BME280;50936;51.660;5.616;2024-02-15T04:21:09;101230.88;;;15.57;100.00
64544;BME280;50936;51.660;5.616;2024-02-15T04:23:57;101237.78;;;15.61;100.00
64544;BME280;50936;51.660;5.616;2024-02-15T04:26:44;101227.00;;;15.59;100.00
64544;BME280;50936;51.660;5.616;2024-02-15T04:29:34;101228.59;;;15.62;100.00
64544;BME280;50936;51.660;5.616;2024-02-15T04:32:26;101223.16;;;15.62;100.00
64544;BME280;50936;51.660;5.616;2024-02-15T04:35:15;101223.75;;;15.66;100.00
64544;BME280;50936;51.660;5.616;2024-02-15T04:38:03;101219.09;;;15.56;100.00
64544;BME280;50936;51.660;5.616;2024-02-15T04:40:50;101221.69;;;15.58;100.00
64544;BME280;50936;51.660;5.616;2024-02-15T04:43:38;101211.41;;;15.29;100.00
64544;BME280;50936;51.660;5.616;2024-02-15T04:46:27;101200.75;;;15.37;100.00
64544;BME280;50936;51.660;5.616;2024-02-15T04:49:16;101215.66;;;15.22;100.00
64544;BME280;50936;51.660;5.616;2024-02-15T04:52:04;101207.69;;;15.30;100.00
64544;BME280;50936;51.660;5.616;2024-02-15T04:54:52;101202.50;;;15.27;100.00
64544;BME280;50936;51.660;5.616;2024-02-15T04:57:41;101202.72;;;15.35;100.00
64544;BME280;50936;51.660;5.616;2024-02-15T05:00:28;101196.28;;;15.36;100.00
64544;BME280;50936;51.660;5.616;2024-02-15T05:03:16;101192.06;;;15.44;100.00
64544;BME280;50936;51.660;5.616;2024-02-15T05:06:04;101198.03;;;15.37;100.00
64544;BME280;50936;51.660;5.616;2024-02-15T05:08:53;101201.47;;;15.39;100.00
64544;BME280;50936;51.660;5.616;2024-02-15T05:11:42;101198.28;;;15.34;100.00
64544;BME280;50936;51.660;5.616;2024-02-15T05:14:33;101200.00;;;15.35;100.00
64544;BME280;50936;51.660;5.616;2024-02-15T05:17:26;101212.88;;;15.33;100.00
64544;BME280;50936;51.660;5.616;2024-02-15T05:20:18;101210.38;;;15.42;100.00
64544;BME280;50936;51.660;5.616;2024-02-15T05:23:07;101204.81;;;15.43;100.00
64544;BME280;50936;51.660;5.616;2024-02-15T05:25:54;101207.16;;;15.36;100.00
64544;BME280;50936;51.660;5.616;2024-02-15T05:28:43;101208.31;;;15.34;100.00
64544;BME280;50936;51.660;5.616;2024-02-15T05:31:30;101206.91;;;15.39;100.00
64544;BME280;50936;51.660;5.616;2024-02-15T05:34:17;101209.50;;;15.41;100.00
64544;BME280;50936;51.660;5.616;2024-02-15T05:37:05;101207.78;;;15.40;100.00
64544;BME280;50936;51.660;5.616;2024-02-15T05:39:53;101204.31;;;15.38;100.00
64544;BME280;50936;51.660;5.616;2024-02-15T05:42:42;101210.63;;;15.38;100.00
64544;BME280;50936;51.660;5.616;2024-02-15T05:45:32;101206.09;;;15.28;100.00
64544;BME280;50936;51.660;5.616;2024-02-15T05:48:21;101208.19;;;15.35;100.00
64544;BME280;50936;51.660;5.616;2024-02-15T05:51:08;101204.72;;;15.33;100.00
64544;BME280;50936;51.660;5.616;2024-02-15T05:53:56;101204.59;;;15.35;100.00
64544;BME280;50936;51.660;5.616;2024-02-15T05:56:46;101202.78;;;15.24;100.00
64544;BME280;50936;51.660;5.616;2024-02-15T05:59:38;101195.94;;;15.30;100.00
64544;BME280;50936;51.660;5.616;2024-02-15T06:02:27;101184.19;;;15.29;100.00
64544;BME280;50936;51.660;5.616;2024-02-15T06:05:14;101171.34;;;15.31;100.00
64544;BME280;50936;51.660;5.616;2024-02-15T06:08:04;101158.97;;;15.27;100.00
64544;BME280;50936;51.660;5.616;2024-02-15T06:10:52;101150.63;;;15.08;100.00
64544;BME280;50936;51.660;5.616;2024-02-15T06:13:40;101134.03;;;15.22;100.00
64544;BME280;50936;51.660;5.616;2024-02-15T06:16:28;101122.91;;;15.14;100.00
64544;BME280;50936;51.660;5.616;2024-02-15T06:19:15;101120.91;;;15.16;100.00
64544;BME280;50936;51.660;5.616;2024-02-15T06:22:03;101102.91;;;15.04;100.00
64544;BME280;50936;51.660;5.616;2024-02-15T06:24:51;101084.63;;;15.06;100.00
64544;BME280;50936;51.660;5.616;2024-02-15T06:27:39;101089.63;;;14.89;100.00
64544;BME280;50936;51.660;5.616;2024-02-15T06:30:30;101120.28;;;14.91;100.00
64544;BME280;50936;51.660;5.616;2024-02-15T06:33:37;101130.19;;;14.81;100.00
64544;BME280;50936;51.660;5.616;2024-02-15T06:36:46;101139.59;;;14.66;100.00
64544;BME280;50936;51.660;5.616;2024-02-15T06:39:53;101147.25;;;14.72;100.00
64544;BME280;50936;51.660;5.616;2024-02-15T06:42:41;101149.84;;;14.73;100.00
64544;BME280;50936;51.660;5.616;2024-02-15T06:45:28;101143.00;;;14.90;100.00
64544;BME280;50936;51.660;5.616;2024-02-15T06:48:18;101149.31;;;14.79;100.00
64544;BME280;50936;51.660;5.616;2024-02-15T06:51:06;101160.34;;;14.89;100.00
64544;BME280;50936;51.660;5.616;2024-02-15T06:53:55;101163.50;;;14.94;100.00
64544;BME280;50936;51.660;5.616;2024-02-15T06:56:46;101169.47;;;14.88;100.00
64544;BME280;50936;51.660;5.616;2024-02-15T06:59:34;101172.91;;;14.90;100.00
64544;BME280;50936;51.660;5.616;2024-02-15T07:02:21;101174.03;;;14.99;100.00
64544;BME280;50936;51.660;5.616;2024-02-15T07:05:10;101184.50;;;15.04;100.00
64544;BME280;50936;51.660;5.616;2024-02-15T07:07:57;101184.25;;;15.07;100.00
64544;BME280;50936;51.660;5.616;2024-02-15T07:10:44;101186.97;;;15.07;100.00
64544;BME280;50936;51.660;5.616;2024-02-15T07:13:31;101182.56;;;15.06;100.00
64544;BME280;50936;51.660;5.616;2024-02-15T07:16:19;101175.44;;;15.14;100.00
64544;BME280;50936;51.660;5.616;2024-02-15T07:19:06;101160.38;;;15.10;100.00
64544;BME280;50936;51.660;5.616;2024-02-15T07:21:56;101151.09;;;15.13;100.00
64544;BME280;50936;51.660;5.616;2024-02-15T07:24:44;101141.25;;;15.00;100.00
64544;BME280;50936;51.660;5.616;2024-02-15T07:27:31;101149.91;;;15.06;100.00
64544;BME280;50936;51.660;5.616;2024-02-15T07:30:21;101137.69;;;14.89;100.00
64544;BME280;50936;51.660;5.616;2024-02-15T07:33:12;101140.03;;;14.93;100.00
64544;BME280;50936;51.660;5.616;2024-02-15T07:36:01;101147.47;;;14.91;100.00
64544;BME280;50936;51.660;5.616;2024-02-15T07:38:53;101150.78;;;14.83;100.00
64544;BME280;50936;51.660;5.616;2024-02-15T07:41:41;101146.50;;;14.81;100.00
64544;BME280;50936;51.660;5.616;2024-02-15T07:44:28;101143.53;;;14.84;100.00
64544;BME280;50936;51.660;5.616;2024-02-15T07:47:17;101153.91;;;14.79;100.00
64544;BME280;50936;51.660;5.616;2024-02-15T07:50:07;101143.75;;;14.92;100.00
64544;BME280;50936;51.660;5.616;2024-02-15T07:52:56;101147.34;;;14.93;100.00
64544;BME280;50936;51.660;5.616;2024-02-15T07:55:43;101140.06;;;14.82;100.00
64544;BME280;50936;51.660;5.616;2024-02-15T07:58:31;101138.09;;;14.84;100.00
64544;BME280;50936;51.660;5.616;2024-02-15T08:01:18;101152.13;;;15.00;100.00
64544;BME280;50936;51.660;5.616;2024-02-15T08:04:11;101149.28;;;15.02;100.00
64544;BME280;50936;51.660;5.616;2024-02-15T08:07:01;101141.75;;;14.94;100.00
64544;BME280;50936;51.660;5.616;2024-02-15T08:09:49;101155.34;;;15.06;100.00
64544;BME280;50936;51.660;5.616;2024-02-15T08:12:42;101161.63;;;15.06;100.00
64544;BME280;50936;51.660;5.616;2024-02-15T08:15:30;101144.31;;;15.07;100.00
64544;BME280;50936;51.660;5.616;2024-02-15T08:18:17;101143.69;;;15.04;100.00
64544;BME280;50936;51.660;5.616;2024-02-15T08:21:05;101138.53;;;15.00;100.00
64544;BME280;50936;51.660;5.616;2024-02-15T08:23:52;101140.50;;;15.10;100.00
64544;BME280;50936;51.660;5.616;2024-02-15T08:26:40;101143.22;;;15.10;100.00
64544;BME280;50936;51.660;5.616;2024-02-15T08:29:28;101132.69;;;15.05;100.00
64544;BME280;50936;51.660;5.616;2024-02-15T08:32:16;101139.75;;;15.08;100.00
64544;BME280;50936;51.660;5.616;2024-02-15T08:35:03;101147.38;;;15.14;100.00
64544;BME280;50936;51.660;5.616;2024-02-15T08:37:52;101135.97;;;15.20;100.00
64544;BME280;50936;51.660;5.616;2024-02-15T08:40:40;101137.97;;;15.18;100.00
64544;BME280;50936;51.660;5.616;2024-02-15T08:43:27;101150.19;;;15.24;100.00
64544;BME280;50936;51.660;5.616;2024-02-15T08:46:14;101144.13;;;15.31;100.00
64544;BME280;50936;51.660;5.616;2024-02-15T08:49:02;101124.31;;;15.29;100.00
64544;BME280;50936;51.660;5.616;2024-02-15T08:51:50;101126.66;;;15.34;100.00
64544;BME280;50936;51.660;5.616;2024-02-15T08:54:37;101132.97;;;15.34;100.00
64544;BME280;50936;51.660;5.616;2024-02-15T08:57:28;101128.53;;;15.33;100.00
64544;BME280;50936;51.660;5.616;2024-02-15T09:00:15;101124.78;;;15.34;100.00
64544;BME280;50936;51.660;5.616;2024-02-15T09:03:04;101111.47;;;15.31;100.00
64544;BME280;50936;51.660;5.616;2024-02-15T09:05:54;101128.00;;;15.39;100.00
64544;BME280;50936;51.660;5.616;2024-02-15T09:08:41;101123.22;;;15.32;100.00
64544;BME280;50936;51.660;5.616;2024-02-15T09:11:29;101124.13;;;15.42;100.00
64544;BME280;50936;51.660;5.616;2024-02-15T09:14:17;101136.41;;;15.36;100.00
64544;BME280;50936;51.660;5.616;2024-02-15T09:17:05;101122.16;;;15.44;100.00
64544;BME280;50936;51.660;5.616;2024-02-15T09:19:55;101127.69;;;15.54;100.00
64544;BME280;50936;51.660;5.616;2024-02-15T09:22:52;101112.31;;;15.53;100.00
64544;BME280;50936;51.660;5.616;2024-02-15T09:25:41;101127.13;;;15.60;100.00
64544;BME280;50936;51.660;5.616;2024-02-15T09:28:31;101129.56;;;15.74;100.00
64544;BME280;50936;51.660;5.616;2024-02-15T09:31:19;101128.03;;;15.61;100.00
64544;BME280;50936;51.660;5.616;2024-02-15T09:34:06;101129.06;;;15.69;100.00
64544;BME280;50936;51.660;5.616;2024-02-15T09:36:54;101131.53;;;15.72;100.00
64544;BME280;50936;51.660;5.616;2024-02-15T09:39:43;101133.94;;;15.87;100.00
64544;BME280;50936;51.660;5.616;2024-02-15T09:42:31;101126.63;;;15.87;100.00
64544;BME280;50936;51.660;5.616;2024-02-15T09:45:21;101132.09;;;15.87;100.00
64544;BME280;50936;51.660;5.616;2024-02-15T09:48:11;101139.13;;;15.90;100.00
64544;BME280;50936;51.660;5.616;2024-02-15T09:51:07;101142.41;;;15.72;100.00
64544;BME280;50936;51.660;5.616;2024-02-15T09:53:57;101144.63;;;15.78;100.00
64544;BME280;50936;51.660;5.616;2024-02-15T09:56:45;101126.97;;;15.94;100.00
64544;BME280;50936;51.660;5.616;2024-02-15T09:59:33;101119.91;;;15.91;100.00
64544;BME280;50936;51.660;5.616;2024-02-15T10:02:24;101123.97;;;15.97;100.00
64544;BME280;50936;51.660;5.616;2024-02-15T10:05:13;101113.34;;;15.94;100.00
64544;BME280;50936;51.660;5.616;2024-02-15T10:08:00;101110.63;;;15.94;100.00
64544;BME280;50936;51.660;5.616;2024-02-15T10:11:06;101118.50;;;15.97;100.00
64544;BME280;50936;51.660;5.616;2024-02-15T10:14:10;101126.50;;;15.89;100.00
64544;BME280;50936;51.660;5.616;2024-02-15T10:17:05;101125.97;;;15.95;100.00
64544;BME280;50936;51.660;5.616;2024-02-15T10:20:04;101110.94;;;16.01;100.00
64544;BME280;50936;51.660;5.616;2024-02-15T10:25:56;101129.72;;;16.25;100.00
64544;BME280;50936;51.660;5.616;2024-02-15T10:28:45;101134.78;;;16.39;100.00
64544;BME280;50936;51.660;5.616;2024-02-15T10:31:32;101105.25;;;16.44;100.00
64544;BME280;50936;51.660;5.616;2024-02-15T10:34:20;101121.06;;;16.50;100.00
64544;BME280;50936;51.660;5.616;2024-02-15T10:37:15;101125.69;;;16.60;100.00
64544;BME280;50936;51.660;5.616;2024-02-15T10:40:07;101129.72;;;16.75;99.37
64544;BME280;50936;51.660;5.616;2024-02-15T10:42:58;101133.31;;;16.75;100.00
64544;BME280;50936;51.660;5.616;2024-02-15T10:45:48;101131.25;;;16.89;99.65
64544;BME280;50936;51.660;5.616;2024-02-15T10:48:37;101119.75;;;16.85;98.01
64544;BME280;50936;51.660;5.616;2024-02-15T10:51:25;101120.59;;;16.96;96.85
64544;BME280;50936;51.660;5.616;2024-02-15T10:54:22;101120.34;;;16.99;97.93
64544;BME280;50936;51.660;5.616;2024-02-15T10:57:26;101116.88;;;17.06;98.64
64544;BME280;50936;51.660;5.616;2024-02-15T11:00:16;101116.88;;;17.16;97.31
64544;BME280;50936;51.660;5.616;2024-02-15T11:03:10;101119.19;;;17.21;96.63
64544;BME280;50936;51.660;5.616;2024-02-15T11:06:04;101114.03;;;17.08;96.61
64544;BME280;50936;51.660;5.616;2024-02-15T11:08:55;101114.31;;;17.24;96.47
64544;BME280;50936;51.660;5.616;2024-02-15T11:11:43;101109.72;;;17.35;95.18
64544;BME280;50936;51.660;5.616;2024-02-15T11:14:37;101115.91;;;17.37;95.18
64544;BME280;50936;51.660;5.616;2024-02-15T11:23:24;101119.03;;;17.42;95.00
64544;BME280;50936;51.660;5.616;2024-02-15T11:26:45;101110.56;;;17.45;95.59
64544;BME280;50936;51.660;5.616;2024-02-15T11:29:55;101092.31;;;17.45;93.14
64544;BME280;50936;51.660;5.616;2024-02-15T11:32:46;101101.22;;;17.57;94.33
64544;BME280;50936;51.660;5.616;2024-02-15T11:38:57;101097.72;;;17.75;93.77
64544;BME280;50936;51.660;5.616;2024-02-15T11:42:47;101094.72;;;17.78;94.34
64544;BME280;50936;51.660;5.616;2024-02-15T11:45:18;101087.25;;;17.89;93.65
64544;BME280;50936;51.660;5.616;2024-02-15T11:48:10;101090.66;;;18.01;92.85
64544;BME280;50936;51.660;5.616;2024-02-15T11:51:00;101071.94;;;18.06;91.86
64544;BME280;50936;51.660;5.616;2024-02-15T11:53:58;101086.03;;;18.12;92.89
64544;BME280;50936;51.660;5.616;2024-02-15T11:56:56;101074.97;;;18.31;91.36
64544;BME280;50936;51.660;5.616;2024-02-15T12:00:01;101071.47;;;18.39;91.56
64544;BME280;50936;51.660;5.616;2024-02-15T12:03:21;101071.13;;;18.52;91.56
64544;BME280;50936;51.660;5.616;2024-02-15T12:06:43;101055.81;;;18.59;93.39
64544;BME280;50936;51.660;5.616;2024-02-15T12:09:48;101046.53;;;18.70;91.52
64544;BME280;50936;51.660;5.616;2024-02-15T12:12:55;101053.66;;;18.80;90.46
64544;BME280;50936;51.660;5.616;2024-02-15T12:16:01;101059.72;;;18.84;87.47
64544;BME280;50936;51.660;5.616;2024-02-15T12:19:07;101045.38;;;18.72;88.93
64544;BME280;50936;51.660;5.616;2024-02-15T12:21:58;101039.78;;;18.92;87.62
64544;BME280;50936;51.660;5.616;2024-02-15T12:24:55;101028.53;;;18.95;87.05
64544;BME280;50936;51.660;5.616;2024-02-15T12:27:53;101030.63;;;19.01;85.13
64544;BME280;50936;51.660;5.616;2024-02-15T12:30:41;101016.94;;;19.01;87.29
64544;BME280;50936;51.660;5.616;2024-02-15T12:33:29;101017.41;;;19.14;87.54
64544;BME280;50936;51.660;5.616;2024-02-15T12:36:19;101012.00;;;19.22;87.23
64544;BME280;50936;51.660;5.616;2024-02-15T12:39:07;101013.78;;;19.32;83.82
64544;BME280;50936;51.660;5.616;2024-02-15T12:41:58;101012.63;;;19.34;84.27
64544;BME280;50936;51.660;5.616;2024-02-15T12:44:46;101007.28;;;19.33;82.57
64544;BME280;50936;51.660;5.616;2024-02-15T12:47:34;101008.00;;;19.35;83.98
64544;BME280;50936;51.660;5.616;2024-02-15T12:50:23;101002.13;;;19.30;82.41
64544;BME280;50936;51.660;5.616;2024-02-15T12:53:21;101001.31;;;19.37;82.49
64544;BME280;50936;51.660;5.616;2024-02-15T12:56:09;101001.06;;;19.49;81.53
64544;BME280;50936;51.660;5.616;2024-02-15T12:58:56;100996.19;;;19.60;80.29
64544;BME280;50936;51.660;5.616;2024-02-15T13:01:44;100989.34;;;19.65;80.81
64544;BME280;50936;51.660;5.616;2024-02-15T13:04:33;100986.69;;;19.73;79.42
64544;BME280;50936;51.660;5.616;2024-02-15T13:07:21;100985.88;;;19.80;79.70
64544;BME280;50936;51.660;5.616;2024-02-15T13:10:08;100978.38;;;19.91;79.29
64544;BME280;50936;51.660;5.616;2024-02-15T13:12:56;100972.03;;;19.90;80.55
64544;BME280;50936;51.660;5.616;2024-02-15T13:15:43;100981.66;;;19.94;80.65
64544;BME280;50936;51.660;5.616;2024-02-15T13:18:31;100981.69;;;20.03;76.95
64544;BME280;50936;51.660;5.616;2024-02-15T13:21:18;100976.91;;;20.05;78.31
64544;BME280;50936;51.660;5.616;2024-02-15T13:24:05;100965.63;;;20.08;79.67
64544;BME280;50936;51.660;5.616;2024-02-15T13:26:53;100958.72;;;20.04;79.08
64544;BME280;50936;51.660;5.616;2024-02-15T13:29:44;100954.28;;;20.11;77.78
64544;BME280;50936;51.660;5.616;2024-02-15T13:32:32;100941.28;;;20.13;77.08
64544;BME280;50936;51.660;5.616;2024-02-15T13:35:20;100948.00;;;20.27;78.93
64544;BME280;50936;51.660;5.616;2024-02-15T13:38:11;100950.25;;;20.31;81.30
64544;BME280;50936;51.660;5.616;2024-02-15T13:41:03;100931.09;;;20.56;77.88
64544;BME280;50936;51.660;5.616;2024-02-15T13:43:50;100936.63;;;20.89;80.51
64544;BME280;50936;51.660;5.616;2024-02-15T13:46:38;100932.47;;;21.26;77.61
64544;BME280;50936;51.660;5.616;2024-02-15T13:49:26;100930.69;;;21.58;77.30
64544;BME280;50936;51.660;5.616;2024-02-15T13:52:18;100922.94;;;21.69;73.28
64544;BME280;50936;51.660;5.616;2024-02-15T13:55:07;100919.34;;;21.69;73.00
64544;BME280;50936;51.660;5.616;2024-02-15T13:57:55;100913.50;;;21.64;73.31
64544;BME280;50936;51.660;5.616;2024-02-15T14:00:47;100915.53;;;21.78;70.70
64544;BME280;50936;51.660;5.616;2024-02-15T14:03:36;100907.03;;;21.88;72.80
64544;BME280;50936;51.660;5.616;2024-02-15T14:06:23;100896.22;;;21.86;73.71
64544;BME280;50936;51.660;5.616;2024-02-15T14:09:11;100893.22;;;21.65;68.69
64544;BME280;50936;51.660;5.616;2024-02-15T14:11:59;100880.59;;;21.47;69.45
64544;BME280;50936;51.660;5.616;2024-02-15T14:14:48;100881.28;;;21.41;70.99
64544;BME280;50936;51.660;5.616;2024-02-15T14:17:36;100876.13;;;21.30;71.77
64544;BME280;50936;51.660;5.616;2024-02-15T14:20:23;100878.91;;;21.22;69.98
64544;BME280;50936;51.660;5.616;2024-02-15T14:23:11;100874.31;;;21.14;70.72
64544;BME280;50936;51.660;5.616;2024-02-15T14:26:02;100872.97;;;21.02;72.83
64544;BME280;50936;51.660;5.616;2024-02-15T14:28:49;100875.88;;;21.00;71.17
64544;BME280;50936;51.660;5.616;2024-02-15T14:31:36;100872.78;;;21.03;70.96
64544;BME280;50936;51.660;5.616;2024-02-15T14:34:42;100871.44;;;20.99;70.18
64544;BME280;50936;51.660;5.616;2024-02-15T14:37:29;100878.94;;;20.97;70.16
64544;BME280;50936;51.660;5.616;2024-02-15T14:40:17;100871.97;;;20.86;72.08
64544;BME280;50936;51.660;5.616;2024-02-15T14:43:13;100865.44;;;20.79;71.27
64544;BME280;50936;51.660;5.616;2024-02-15T14:46:05;100868.50;;;20.84;72.61
64544;BME280;50936;51.660;5.616;2024-02-15T14:49:01;100860.81;;;20.80;71.77
64544;BME280;50936;51.660;5.616;2024-02-15T14:51:52;100863.88;;;20.76;71.62
64544;BME280;50936;51.660;5.616;2024-02-15T14:54:39;100855.00;;;20.66;70.89
64544;BME280;50936;51.660;5.616;2024-02-15T14:57:26;100857.22;;;20.63;70.44
64544;BME280;50936;51.660;5.616;2024-02-15T15:00:15;100851.19;;;20.59;70.84